createdAt,value
2022-11-04T00:04:23.166Z,7.37
2022-11-04T00:09:29.005Z,7.20
2022-11-04T00:14:34.433Z,8.13
2022-11-04T00:19:52.033Z,7.23
2022-11-04T00:25:13.120Z,7.43
2022-11-04T00:30:18.361Z,7.10
2022-11-04T00:35:23.210Z,6.87
2022-11-04T00:40:27.050Z,7.12
2022-11-04T00:45:32.300Z,7.28
2022-11-04T00:50:36.128Z,7.92
2022-11-04T00:55:40.057Z,8.29
2022-11-04T01:00:45.132Z,8.25
2022-11-04T01:05:49.003Z,7.74
2022-11-04T01:10:52.718Z,8.04
2022-11-04T01:15:59.065Z,7.98
2022-11-04T01:21:03.489Z,8.31
2022-11-04T01:26:07.825Z,8.47
2022-11-04T01:31:17.915Z,8.29
2022-11-04T01:36:23.204Z,8.91
2022-11-04T01:41:28.813Z,8.37
2022-11-04T01:46:39.269Z,8.22
2022-11-04T01:51:44.416Z,8.99
2022-11-04T01:56:49.494Z,9.15
2022-11-04T02:01:55.278Z,8.84
2022-11-04T02:07:02.170Z,8.40
2022-11-04T02:12:24.148Z,7.61
2022-11-04T02:17:42.861Z,7.64
2022-11-04T02:23:19.935Z,8.11
2022-11-04T02:28:56.231Z,7.60
2022-11-04T02:34:09.150Z,7.79
2022-11-04T02:39:23.964Z,7.71
2022-11-04T02:44:34.998Z,7.97
2022-11-04T02:49:45.306Z,7.51
2022-11-04T02:54:52.974Z,7.87
2022-11-04T03:00:01.149Z,8.24
2022-11-04T03:05:08.420Z,7.93
2022-11-04T03:10:17.410Z,7.81
2022-11-04T03:15:25.726Z,7.64
2022-11-04T03:20:32.484Z,7.60
2022-11-04T03:25:41.978Z,7.92
2022-11-04T03:30:52.387Z,7.98
2022-11-04T03:35:58.594Z,8.16
2022-11-04T03:41:04.566Z,7.75
2022-11-04T03:46:08.777Z,8.03
2022-11-04T03:51:13.944Z,8.01
2022-11-04T03:56:59.105Z,8.07
2022-11-04T04:02:13.400Z,8.23
2022-11-04T04:07:23.073Z,8.71
2022-11-04T04:12:32.090Z,8.61
2022-11-04T04:17:38.877Z,8.57
2022-11-04T04:22:50.048Z,8.45
2022-11-04T04:27:55.424Z,8.66
2022-11-04T04:33:02.563Z,9.34
2022-11-04T04:38:31.519Z,9.89
2022-11-04T04:43:52.689Z,10.10
2022-11-04T04:48:56.476Z,10.86
2022-11-04T04:54:01.675Z,10.58
2022-11-04T04:59:06.097Z,10.94
2022-11-04T05:04:10.131Z,10.82
2022-11-04T05:09:15.262Z,10.21
2022-11-04T05:14:19.199Z,10.38
2022-11-04T05:19:23.220Z,10.31
2022-11-04T05:24:28.367Z,10.95
2022-11-04T05:29:32.294Z,10.82
2022-11-04T05:34:36.089Z,10.60
2022-11-04T05:39:41.200Z,11.30
2022-11-04T05:44:45.012Z,10.63
2022-11-04T05:49:48.835Z,10.63
2022-11-04T05:54:53.966Z,10.61
2022-11-04T05:59:57.824Z,10.76
2022-11-04T06:05:01.758Z,11.01
2022-11-04T06:10:07.979Z,11.19
2022-11-04T06:15:12.318Z,11.32
2022-11-04T06:20:16.588Z,11.41
2022-11-04T06:25:22.238Z,11.11
2022-11-04T06:30:26.617Z,11.17
2022-11-04T06:35:32.334Z,11.67
2022-11-04T06:40:38.730Z,11.57
2022-11-04T06:45:42.525Z,11.83
2022-11-04T06:50:46.341Z,11.77
2022-11-04T06:55:52.730Z,12.08
2022-11-04T07:00:56.765Z,11.67
2022-11-04T07:06:00.614Z,11.97
2022-11-04T07:11:05.851Z,11.43
2022-11-04T07:16:10.609Z,11.99
2022-11-04T07:21:14.486Z,11.62
2022-11-04T07:26:20.394Z,11.99
2022-11-04T07:31:24.214Z,12.00
2022-11-04T07:36:27.978Z,11.83
2022-11-04T07:41:33.216Z,11.89
2022-11-04T07:46:37.356Z,11.89
2022-11-04T07:51:41.186Z,12.14
2022-11-04T07:56:46.369Z,12.50
2022-11-04T08:01:50.273Z,12.68
2022-11-04T08:06:54.849Z,12.47
2022-11-04T08:12:00.410Z,12.35
2022-11-04T08:17:04.798Z,12.23
2022-11-04T08:22:09.527Z,12.18
2022-11-04T08:27:15.189Z,12.41
2022-11-04T08:32:19.485Z,12.51
2022-11-04T08:37:23.694Z,13.23
2022-11-04T08:42:28.969Z,12.48
2022-11-04T08:47:32.887Z,13.12
2022-11-04T08:52:36.694Z,13.65
2022-11-04T08:57:41.949Z,13.44
2022-11-04T09:02:45.713Z,13.29
2022-11-04T09:07:49.619Z,13.15
2022-11-04T09:12:54.782Z,13.67
2022-11-04T09:17:58.599Z,13.01
2022-11-04T09:23:02.607Z,13.53
2022-11-04T09:28:08.032Z,13.98
2022-11-04T09:33:12.184Z,13.34
2022-11-04T09:38:16.339Z,12.54
2022-11-04T09:43:37.936Z,12.99
2022-11-04T09:48:46.281Z,13.51
2022-11-04T09:53:53.110Z,13.27
2022-11-04T09:58:58.511Z,13.59
2022-11-04T10:04:12.680Z,14.04
2022-11-04T10:09:31.653Z,13.98
2022-11-04T10:15:08.867Z,14.46
2022-11-04T10:20:24.638Z,14.35
2022-11-04T10:25:35.758Z,14.45
2022-11-04T10:30:44.373Z,14.68
2022-11-04T10:35:51.833Z,14.98
2022-11-04T10:41:01.620Z,15.04
2022-11-04T10:46:22.090Z,15.15
2022-11-04T10:51:26.074Z,14.92
2022-11-04T10:56:37.712Z,15.32
2022-11-04T11:01:50.733Z,15.61
2022-11-04T11:06:57.437Z,15.64
2022-11-04T11:12:09.867Z,15.70
2022-11-04T11:17:26.163Z,16.72
2022-11-04T11:22:41.893Z,16.54
2022-11-04T11:27:50.438Z,17.04
2022-11-04T11:32:59.374Z,18.12
2022-11-04T11:38:06.251Z,18.31
2022-11-04T11:43:26.027Z,17.78
2022-11-04T11:48:34.291Z,18.90
2022-11-04T11:53:40.773Z,21.33
2022-11-04T12:09:43.567Z,22.61
2022-11-04T12:15:16.272Z,21.88
2022-11-04T12:21:00.134Z,20.46
2022-11-04T12:26:25.720Z,21.27
2022-11-04T12:31:43.438Z,21.09
2022-11-04T12:37:12.982Z,21.45
2022-11-04T12:42:32.696Z,21.74
2022-11-04T12:47:41.038Z,21.51
2022-11-04T12:53:08.386Z,21.00
2022-11-04T12:58:31.478Z,19.94
2022-11-04T13:03:41.580Z,19.13
2022-11-04T13:08:52.429Z,18.26
2022-11-04T13:14:04.225Z,18.24
2022-11-04T16:01:00.915Z,10.39
2022-11-04T16:06:06.853Z,11.05
2022-11-04T16:11:14.718Z,11.18
2022-11-04T16:16:24.486Z,11.39
2022-11-04T16:21:31.646Z,11.51
2022-11-04T16:26:40.376Z,11.50
2022-11-04T16:31:45.839Z,12.16
2022-11-04T16:36:49.906Z,12.54
2022-11-04T16:41:53.827Z,11.75
2022-11-04T16:46:59.172Z,12.75
2022-11-04T16:52:04.247Z,12.53
2022-11-04T16:57:11.876Z,12.04
2022-11-04T17:02:30.831Z,12.66
2022-11-04T17:07:52.043Z,12.72
2022-11-04T17:12:58.388Z,12.40
2022-11-04T17:18:03.953Z,11.28
2022-11-04T17:23:08.256Z,10.33
2022-11-04T17:28:14.137Z,11.05
2022-11-04T17:33:20.434Z,11.74
2022-11-04T17:38:24.419Z,11.97
2022-11-04T17:43:45.904Z,11.82
2022-11-04T17:48:51.281Z,11.36
2022-11-04T17:53:55.146Z,11.01
2022-11-04T17:59:01.397Z,11.47
2022-11-04T18:04:07.421Z,11.53
2022-11-04T18:09:12.153Z,11.33
2022-11-04T18:14:18.764Z,11.41
2022-11-04T18:19:25.022Z,11.24
2022-11-04T18:24:29.212Z,10.27
2022-11-04T18:29:33.126Z,10.62
2022-11-04T18:34:38.553Z,10.98
2022-11-04T18:39:43.461Z,11.33
2022-11-04T18:44:47.297Z,11.00
2022-11-04T18:49:52.799Z,11.19
2022-11-04T18:54:56.894Z,10.80
2022-11-04T19:00:03.345Z,10.30
2022-11-04T19:05:11.142Z,10.85
2022-11-04T19:10:15.255Z,10.42
2022-11-04T19:15:19.663Z,9.94
2022-11-04T19:20:24.889Z,10.46
2022-11-04T19:25:28.975Z,10.34
2022-11-04T19:30:32.979Z,10.25
2022-11-04T19:35:38.333Z,11.23
2022-11-04T19:40:42.337Z,10.90
2022-11-04T19:45:49.007Z,10.56
2022-11-04T19:50:54.421Z,10.06
2022-11-04T19:55:58.735Z,10.57
2022-11-04T20:01:06.153Z,10.96
2022-11-04T20:06:13.123Z,11.07
2022-11-04T20:11:19.037Z,11.41
2022-11-04T20:16:25.165Z,10.97
2022-11-04T20:21:33.231Z,10.93
2022-11-04T20:26:38.651Z,10.47
2022-11-04T20:31:43.147Z,10.17
2022-11-04T20:36:48.907Z,9.79
2022-11-04T20:41:53.165Z,9.61
2022-11-04T20:46:57.418Z,9.81
2022-11-04T20:52:03.479Z,10.58
2022-11-04T20:57:07.989Z,9.94
2022-11-04T21:02:13.451Z,10.18
2022-11-04T21:07:19.042Z,9.81
2022-11-04T21:12:23.299Z,10.00
2022-11-04T21:17:27.206Z,9.91
2022-11-04T21:22:33.652Z,9.87
2022-11-04T21:27:37.460Z,10.57
2022-11-04T21:32:41.199Z,10.98
2022-11-04T21:37:46.314Z,11.40
2022-11-04T21:42:50.104Z,11.25
2022-11-04T21:47:54.508Z,10.72
2022-11-04T21:53:00.204Z,10.59
2022-11-04T21:58:04.003Z,10.48
2022-11-04T22:03:07.928Z,10.91
2022-11-04T22:08:19.933Z,10.74
2022-11-04T22:13:24.336Z,11.04
2022-11-04T22:18:30.445Z,10.85
2022-11-04T22:23:36.738Z,10.72
2022-11-04T22:28:40.780Z,10.75
2022-11-04T22:33:44.946Z,10.86
2022-11-04T22:38:50.728Z,11.01
2022-11-04T22:43:54.542Z,11.25
2022-11-04T22:48:59.670Z,10.34
2022-11-04T22:54:08.465Z,10.87
2022-11-04T22:59:13.913Z,10.79
2022-11-04T23:04:17.815Z,10.87
2022-11-04T23:09:22.981Z,10.48
2022-11-04T23:14:49.656Z,10.65
2022-11-04T23:19:53.373Z,10.86
2022-11-04T23:25:09.588Z,11.27
2022-11-04T23:30:25.812Z,11.10
2022-11-04T23:35:49.191Z,11.19
2022-11-04T23:41:14.013Z,11.20
2022-11-04T23:46:41.112Z,10.81
2022-11-04T23:52:03.423Z,10.85
2022-11-04T23:57:31.613Z,10.61
